createdAt,value
2022-12-18T00:02:54.689Z,74.30
2022-12-18T00:06:20.612Z,74.70
2022-12-18T00:09:45.106Z,74.80
2022-12-18T00:13:10.275Z,74.30
2022-12-18T00:16:37.830Z,76.30
2022-12-18T00:20:01.904Z,75.70
2022-12-18T00:23:26.120Z,75.70
2022-12-18T00:26:49.947Z,75.80
2022-12-18T00:30:16.983Z,75.30
2022-12-18T00:33:45.983Z,75.50
2022-12-18T00:37:09.960Z,75.60
2022-12-18T00:40:33.647Z,75.50
2022-12-18T00:43:56.310Z,75.00
2022-12-18T00:47:21.376Z,74.90
2022-12-18T00:50:50.130Z,75.10
2022-12-18T00:54:14.776Z,75.10
2022-12-18T00:57:38.711Z,75.30
2022-12-18T01:01:05.949Z,75.10
2022-12-18T01:04:34.023Z,74.60
2022-12-18T01:07:59.591Z,74.50
2022-12-18T01:11:24.765Z,75.00
2022-12-18T01:14:51.496Z,74.90
2022-12-18T01:18:15.952Z,73.50
2022-12-18T01:21:41.122Z,74.20
2022-12-18T01:25:07.555Z,74.70
2022-12-18T01:28:31.929Z,74.80
2022-12-18T01:31:57.628Z,74.60
2022-12-18T01:35:24.652Z,74.30
2022-12-18T01:38:49.054Z,74.60
2022-12-18T01:42:19.344Z,74.50
2022-12-18T01:45:48.981Z,74.40
2022-12-18T01:49:13.306Z,74.30
2022-12-18T01:52:37.895Z,74.10
2022-12-18T01:56:05.388Z,74.00
2022-12-18T01:59:32.645Z,74.00
2022-12-18T02:02:57.848Z,74.10
2022-12-18T02:06:29.329Z,73.20
2022-12-18T02:10:03.366Z,73.50
2022-12-18T02:13:36.928Z,73.40
2022-12-18T02:17:07.049Z,73.40
2022-12-18T02:20:37.076Z,73.70
2022-12-18T02:24:15.265Z,73.60
2022-12-18T02:27:43.475Z,72.60
2022-12-18T02:31:11.686Z,73.00
2022-12-18T02:34:40.330Z,72.80
2022-12-18T02:38:08.855Z,73.30
2022-12-18T02:41:34.371Z,73.10
2022-12-18T02:45:02.543Z,73.00
2022-12-18T02:48:33.143Z,73.10
2022-12-18T02:52:04.420Z,73.40
2022-12-18T02:55:36.581Z,73.50
2022-12-18T02:59:09.983Z,73.00
2022-12-18T03:02:48.983Z,74.00
2022-12-18T03:06:16.117Z,74.40
2022-12-18T03:09:45.598Z,74.10
2022-12-18T03:13:19.080Z,74.10
2022-12-18T03:16:46.739Z,74.30
2022-12-18T03:20:17.023Z,73.80
2022-12-18T03:23:46.510Z,73.70
2022-12-18T03:27:15.160Z,74.30
2022-12-18T03:30:41.978Z,74.00
2022-12-18T03:34:11.110Z,73.70
2022-12-18T03:37:42.657Z,73.90
2022-12-18T03:41:15.071Z,74.10
2022-12-18T03:45:04.874Z,73.90
2022-12-18T03:48:33.799Z,73.90
2022-12-18T03:52:08.537Z,73.40
2022-12-18T03:55:37.307Z,73.60
2022-12-18T03:59:05.145Z,73.90
2022-12-18T04:02:32.453Z,73.90
2022-12-18T04:06:01.241Z,73.70
2022-12-18T04:09:26.278Z,73.30
2022-12-18T04:12:52.580Z,73.60
2022-12-18T04:16:19.301Z,73.70
2022-12-18T04:19:47.258Z,73.60
2022-12-18T04:23:11.161Z,73.30
2022-12-18T04:26:36.484Z,73.00
2022-12-18T04:30:14.468Z,72.70
2022-12-18T04:33:38.867Z,72.90
2022-12-18T04:37:04.239Z,73.00
2022-12-18T04:40:29.268Z,73.20
2022-12-18T04:43:53.175Z,72.90
2022-12-18T04:47:18.701Z,73.00
2022-12-18T04:50:43.223Z,72.90
2022-12-18T04:54:07.405Z,73.10
2022-12-18T04:57:31.334Z,72.50
2022-12-18T05:00:55.777Z,72.20
2022-12-18T05:04:27.542Z,72.80
2022-12-18T05:07:51.267Z,72.90
2022-12-18T05:11:17.606Z,73.00
2022-12-18T05:14:41.293Z,73.00
2022-12-18T05:18:05.983Z,73.00
2022-12-18T05:21:31.897Z,73.10
2022-12-18T05:24:56.211Z,73.20
2022-12-18T05:28:20.471Z,72.70
2022-12-18T05:31:46.969Z,73.20
2022-12-18T05:35:15.430Z,73.30
2022-12-18T05:38:41.408Z,72.70
2022-12-18T05:42:05.104Z,72.30
2022-12-18T05:45:29.361Z,72.60
2022-12-18T05:48:53.599Z,72.90
2022-12-18T05:52:17.782Z,73.60
2022-12-18T05:55:46.464Z,72.80
2022-12-18T05:59:12.922Z,72.60
2022-12-18T06:02:38.435Z,73.00
2022-12-18T06:06:02.786Z,73.00
2022-12-18T06:09:27.281Z,72.80
2022-12-18T06:12:52.634Z,72.80
2022-12-18T06:16:19.088Z,72.50
2022-12-18T06:19:42.685Z,72.50
2022-12-18T06:23:07.587Z,72.30
2022-12-18T06:26:34.207Z,72.10
2022-12-18T06:29:59.693Z,72.40
2022-12-18T06:33:27.785Z,72.50
2022-12-18T06:36:52.272Z,72.90
2022-12-18T06:40:16.565Z,72.10
2022-12-18T06:43:41.328Z,72.30
2022-12-18T06:47:06.702Z,73.00
2022-12-18T06:50:32.761Z,73.20
2022-12-18T06:53:57.226Z,74.00
2022-12-18T06:57:23.924Z,74.40
2022-12-18T07:00:48.593Z,74.60
2022-12-18T07:04:13.742Z,74.60
2022-12-18T07:07:38.436Z,74.80
2022-12-18T07:11:09.704Z,74.10
2022-12-18T07:14:38.866Z,74.20
2022-12-18T07:18:02.485Z,75.00
2022-12-18T07:21:27.808Z,74.20
2022-12-18T07:24:51.449Z,74.20
2022-12-18T07:28:17.509Z,74.30
2022-12-18T07:31:41.579Z,74.10
2022-12-18T07:35:05.934Z,73.70
2022-12-18T07:38:30.995Z,73.90
2022-12-18T07:42:09.098Z,73.90
2022-12-18T07:45:32.868Z,73.80
2022-12-18T07:48:57.363Z,73.70
2022-12-18T07:52:26.580Z,73.00
2022-12-18T07:56:25.400Z,72.80
2022-12-18T07:59:40.437Z,73.10
2022-12-18T08:03:04.584Z,73.40
2022-12-18T08:06:29.473Z,73.40
2022-12-18T08:09:55.716Z,73.10
2022-12-18T08:13:20.950Z,72.80
2022-12-18T08:16:48.674Z,77.10
2022-12-18T08:20:14.850Z,80.50
2022-12-18T08:23:42.995Z,71.40
2022-12-18T08:27:28.486Z,62.80
2022-12-18T08:31:19.926Z,53.40
2022-12-18T08:34:45.426Z,47.50
2022-12-18T08:38:09.441Z,46.50
2022-12-18T08:41:33.470Z,43.50
2022-12-18T08:44:57.792Z,42.10
2022-12-18T08:48:22.941Z,42.50
2022-12-18T08:51:47.499Z,43.80
2022-12-18T08:55:19.283Z,41.80
2022-12-18T08:58:44.826Z,40.10
2022-12-18T09:02:10.268Z,41.10
2022-12-18T09:05:35.361Z,41.30
2022-12-18T09:08:59.746Z,41.60
2022-12-18T09:12:24.474Z,43.80
2022-12-18T09:15:51.307Z,45.70
2022-12-18T09:19:15.736Z,47.00
2022-12-18T09:22:41.937Z,48.50
2022-12-18T09:26:06.853Z,49.90
2022-12-18T09:29:30.649Z,51.90
2022-12-18T09:32:55.591Z,53.70
2022-12-18T09:36:20.567Z,55.00
2022-12-18T09:39:46.883Z,55.30
2022-12-18T09:43:17.041Z,55.60
2022-12-18T09:46:46.027Z,56.40
2022-12-18T09:50:27.844Z,57.70
2022-12-18T09:54:01.177Z,59.00
2022-12-18T09:57:27.568Z,60.80
2022-12-18T10:00:55.774Z,59.50
2022-12-18T10:04:19.637Z,56.90
2022-12-18T10:07:56.043Z,54.30
2022-12-18T10:11:34.220Z,52.00
2022-12-18T10:15:03.974Z,51.30
2022-12-18T10:18:39.214Z,50.70
2022-12-18T10:22:12.073Z,50.00
2022-12-18T10:25:43.000Z,48.70
2022-12-18T10:29:13.119Z,47.40
2022-12-18T10:32:38.007Z,45.70
2022-12-18T10:36:03.862Z,44.70
2022-12-18T10:39:27.653Z,48.10
2022-12-18T10:43:11.358Z,48.30
2022-12-18T10:46:42.377Z,49.40
2022-12-18T10:50:26.096Z,50.20
2022-12-18T10:53:56.306Z,49.60
2022-12-18T10:57:33.509Z,49.30
2022-12-18T11:01:06.800Z,50.10
2022-12-18T11:04:32.403Z,50.70
2022-12-18T11:07:58.437Z,51.60
2022-12-18T11:11:24.271Z,53.20
2022-12-18T11:14:51.051Z,53.90
2022-12-18T11:18:21.019Z,54.40
2022-12-18T11:21:44.837Z,54.60
2022-12-18T11:25:36.645Z,54.80
2022-12-18T11:29:11.890Z,54.40
2022-12-18T11:32:39.119Z,55.40
2022-12-18T11:36:05.741Z,55.20
2022-12-18T11:39:39.456Z,55.80
2022-12-18T11:43:10.684Z,56.30
2022-12-18T11:46:39.367Z,56.70
2022-12-18T11:50:12.882Z,56.80
2022-12-18T11:53:39.011Z,56.60
2022-12-18T11:57:10.974Z,56.10
2022-12-18T12:00:39.840Z,56.50
2022-12-18T12:04:25.632Z,56.10
2022-12-18T12:07:57.309Z,56.60
2022-12-18T12:11:33.503Z,56.80
2022-12-18T12:15:05.298Z,56.80
2022-12-18T12:18:38.675Z,57.00
2022-12-18T12:22:11.013Z,57.10
2022-12-18T12:25:41.541Z,57.50
2022-12-18T12:29:30.554Z,57.50
2022-12-18T12:33:13.179Z,57.90
2022-12-18T12:36:46.714Z,57.70
2022-12-18T12:40:49.270Z,57.10
2022-12-18T12:44:05.122Z,57.20
2022-12-18T12:47:32.403Z,56.20
2022-12-18T12:50:58.219Z,57.10
2022-12-18T12:54:26.207Z,56.10
2022-12-18T12:57:58.171Z,56.20
2022-12-18T13:01:32.029Z,55.90
2022-12-18T13:05:01.453Z,55.90
2022-12-18T13:08:28.422Z,56.10
2022-12-18T13:12:22.674Z,55.40
2022-12-18T13:15:49.310Z,56.00
2022-12-18T13:19:26.272Z,56.30
2022-12-18T13:22:52.324Z,56.20
2022-12-18T13:26:33.002Z,55.60
2022-12-18T13:29:58.151Z,54.70
2022-12-18T13:34:16.587Z,55.10
2022-12-18T13:37:45.263Z,55.00
2022-12-18T13:41:25.348Z,55.00
2022-12-18T13:44:49.672Z,54.80
2022-12-18T13:48:26.364Z,54.80
2022-12-18T13:51:52.585Z,54.80
2022-12-18T13:55:20.813Z,54.40
2022-12-18T13:58:45.310Z,53.80
2022-12-18T14:02:16.489Z,54.10
2022-12-18T14:05:43.442Z,54.20
2022-12-18T14:09:19.023Z,54.50
2022-12-18T14:13:02.208Z,54.80
2022-12-18T14:16:27.615Z,55.20
2022-12-18T14:19:53.189Z,55.30
2022-12-18T14:23:33.148Z,55.00
2022-12-18T14:27:14.870Z,54.30
2022-12-18T14:30:40.004Z,53.90
2022-12-18T14:34:03.750Z,53.70
2022-12-18T14:37:29.136Z,53.40
2022-12-18T14:40:59.553Z,53.80
2022-12-18T14:44:23.472Z,53.50
2022-12-18T14:47:47.221Z,53.30
2022-12-18T14:51:19.228Z,52.80
2022-12-18T14:54:47.672Z,52.70
2022-12-18T14:58:17.423Z,52.80
2022-12-18T15:01:48.180Z,52.20
2022-12-18T15:05:20.842Z,52.10
2022-12-18T15:08:44.751Z,51.80
2022-12-18T15:12:26.592Z,51.60
2022-12-18T15:15:52.535Z,51.20
2022-12-18T15:19:18.703Z,50.70
2022-12-18T15:22:42.566Z,50.30
2022-12-18T15:26:09.881Z,49.90
2022-12-18T15:29:33.908Z,49.80
2022-12-18T15:33:25.918Z,49.30
2022-12-18T15:36:49.941Z,49.40
2022-12-18T15:40:18.771Z,49.40
2022-12-18T15:43:44.533Z,49.20
2022-12-18T15:47:14.702Z,49.40
2022-12-18T15:50:40.035Z,49.30
2022-12-18T15:54:05.567Z,48.70
2022-12-18T15:57:28.424Z,49.10
2022-12-18T16:00:52.216Z,49.20
2022-12-18T16:04:18.199Z,49.00
2022-12-18T16:07:43.358Z,48.50
2022-12-18T16:11:08.017Z,49.00
2022-12-18T16:14:33.460Z,48.80
2022-12-18T16:17:57.394Z,49.10
2022-12-18T16:21:21.165Z,49.10
2022-12-18T16:24:46.650Z,49.50
2022-12-18T16:28:10.451Z,49.40
2022-12-18T16:31:35.304Z,50.10
2022-12-18T16:35:01.959Z,49.70
2022-12-18T16:38:25.527Z,49.80
2022-12-18T16:41:50.765Z,49.50
2022-12-18T16:45:17.431Z,49.50
2022-12-18T16:48:41.133Z,49.50
2022-12-18T16:52:05.723Z,49.60
2022-12-18T16:55:29.732Z,49.70
2022-12-18T16:58:56.171Z,50.00
2022-12-18T17:02:22.880Z,50.20
2022-12-18T17:05:53.235Z,49.60
2022-12-18T17:09:19.287Z,49.20
2022-12-18T17:12:43.475Z,49.60
2022-12-18T17:16:10.678Z,49.80
2022-12-18T17:19:34.854Z,49.80
2022-12-18T17:23:01.684Z,50.20
2022-12-18T17:26:26.619Z,50.10
2022-12-18T17:29:50.408Z,49.70
2022-12-18T17:33:15.961Z,50.00
2022-12-18T17:36:41.311Z,50.00
2022-12-18T17:40:06.148Z,49.60
2022-12-18T17:43:29.995Z,49.40
2022-12-18T17:46:54.106Z,49.50
2022-12-18T17:50:19.643Z,49.30
2022-12-18T17:53:43.930Z,48.70
2022-12-18T17:57:08.242Z,48.90
2022-12-18T18:00:39.130Z,48.40
2022-12-18T18:04:04.614Z,48.10
2022-12-18T18:07:29.879Z,47.70
2022-12-18T18:10:53.892Z,48.60
2022-12-18T18:14:18.929Z,47.60
2022-12-18T18:17:43.284Z,47.60
2022-12-18T18:21:07.583Z,47.70
2022-12-18T18:24:34.096Z,47.70
2022-12-18T18:27:57.818Z,47.80
2022-12-18T18:31:21.690Z,47.70
2022-12-18T18:34:48.450Z,48.40
2022-12-18T18:38:12.460Z,48.10
2022-12-18T18:41:37.480Z,48.60
2022-12-18T18:45:01.068Z,49.10
2022-12-18T18:48:24.901Z,49.20
2022-12-18T18:51:52.489Z,49.70
2022-12-18T18:55:21.397Z,50.20
2022-12-18T18:58:51.788Z,50.70
2022-12-18T19:02:16.553Z,51.00
2022-12-18T19:05:43.079Z,51.70
2022-12-18T19:09:12.428Z,52.50
2022-12-18T19:12:53.749Z,53.20
2022-12-18T19:16:20.195Z,53.80
2022-12-18T19:19:47.525Z,54.50
2022-12-18T19:23:11.343Z,55.10
2022-12-18T19:26:35.199Z,55.90
2022-12-18T19:30:03.436Z,56.30
2022-12-18T19:33:45.191Z,56.60
2022-12-18T19:37:09.049Z,56.90
2022-12-18T19:40:32.714Z,57.30
2022-12-18T19:43:56.482Z,57.70
2022-12-18T19:47:20.246Z,58.10
2022-12-18T19:50:45.361Z,58.40
2022-12-18T19:54:14.741Z,58.60
2022-12-18T19:57:40.483Z,59.00
2022-12-18T20:01:04.457Z,59.10
2022-12-18T20:04:35.122Z,59.30
2022-12-18T20:08:00.088Z,59.90
2022-12-18T20:11:24.089Z,59.50
2022-12-18T20:14:48.191Z,59.70
2022-12-18T20:18:12.081Z,59.90
2022-12-18T20:21:36.290Z,60.00
2022-12-18T20:25:01.458Z,60.30
2022-12-18T20:28:25.822Z,60.30
2022-12-18T20:31:49.673Z,60.20
2022-12-18T20:35:13.494Z,60.40
2022-12-18T20:38:38.987Z,60.60
2022-12-18T20:42:04.728Z,60.70
2022-12-18T20:45:29.429Z,60.90
2022-12-18T20:48:53.021Z,61.20
2022-12-18T20:52:19.365Z,61.50
2022-12-18T20:55:44.607Z,61.80
2022-12-18T20:59:11.248Z,61.90
2022-12-18T21:02:35.991Z,62.10
2022-12-18T21:05:59.725Z,62.30
2022-12-18T21:09:23.387Z,62.10
2022-12-18T21:12:58.728Z,62.10
2022-12-18T21:16:25.267Z,62.50
2022-12-18T21:19:49.736Z,62.50
2022-12-18T21:23:16.668Z,62.70
2022-12-18T21:26:46.047Z,63.00
2022-12-18T21:30:10.933Z,62.90
2022-12-18T21:33:35.976Z,62.70
2022-12-18T21:37:01.661Z,62.70
2022-12-18T21:40:26.152Z,62.70
2022-12-18T21:44:07.290Z,62.60
2022-12-18T21:47:31.065Z,62.60
2022-12-18T21:50:55.964Z,62.20
2022-12-18T21:54:21.098Z,62.10
2022-12-18T21:57:45.273Z,61.90
2022-12-18T22:01:09.556Z,61.90
2022-12-18T22:04:33.301Z,61.90
2022-12-18T22:07:58.742Z,61.80
2022-12-18T22:11:23.338Z,61.70
2022-12-18T22:14:47.273Z,61.60
2022-12-18T22:18:10.837Z,61.50
2022-12-18T22:21:37.745Z,61.50
2022-12-18T22:25:02.725Z,61.20
2022-12-18T22:28:43.718Z,61.40
2022-12-18T22:32:10.513Z,61.10
2022-12-18T22:35:35.669Z,61.10
2022-12-18T22:39:00.694Z,61.00
2022-12-18T22:42:25.752Z,60.80
2022-12-18T22:45:50.353Z,60.80
2022-12-18T22:49:23.230Z,61.10
2022-12-18T22:52:47.290Z,61.70
2022-12-18T22:56:15.715Z,61.80
2022-12-18T22:59:44.755Z,62.90
2022-12-18T23:03:09.615Z,63.00
2022-12-18T23:06:34.355Z,64.40
2022-12-18T23:10:02.512Z,64.80
2022-12-18T23:13:27.255Z,65.70
2022-12-18T23:16:55.366Z,66.00
2022-12-18T23:20:19.350Z,66.80
2022-12-18T23:23:44.293Z,67.60
2022-12-18T23:27:11.597Z,67.80
2022-12-18T23:30:36.553Z,68.60
2022-12-18T23:34:02.882Z,69.10
2022-12-18T23:37:56.910Z,69.90
2022-12-18T23:41:12.375Z,70.40
2022-12-18T23:44:39.022Z,70.60
2022-12-18T23:48:03.382Z,71.30
2022-12-18T23:51:29.944Z,72.50
2022-12-18T23:54:55.924Z,72.30
2022-12-18T23:58:28.921Z,72.80
